ENSB Airport Information

Runway Information
Runway 10 Length 7608 ft width 148 ft
Elevation 63 ft Threshold 199 ft Heading 105
Runway 28 Length 7608 ft Width 148 ft
Elevation 73 ft Threshold 395 ft Heading 285
Airport Frequencies
Type AFIS Name INFO Frequency 118.1 MHZ
Type AFIS Name INFO Frequency 884 MHZ
Airport Navaids
Airport Weather Information & NOTAM
ADDS - METARS form results

(0613 UTC 16 August 2022)
Data provider http://aviationweather.gov/metar/data/
 
METAR text: ENSB 160550Z 13011KT 9999 FEW025 08/02 Q1018 NOSIG RMK WIND 1400FT 13012KT
Conditions at: ENSB (SVALBARD/LONGYEA, SJ) observed 0550 UTC 16 August 2022
Temperature: 8.0°C (46°F)
Dewpoint: 2.0°C (36°F) [RH = 66%]
Pressure (altimeter): 30.06 inches Hg (1018.0 mb)
Winds: from the SE (130 degrees) at 13 MPH (11 knots; 5.7 m/s)
Visibility: 6 or more miles (10+ km)
Ceiling: at least 12,000 feet AGL
Clouds: few clouds at 2500 feet AGL
Weather: no significant weather observed at this time

METAR text: ENSB 160520Z 12013KT CAVOK 08/02 Q1018 NOSIG RMK WIND 1400FT 13013KT
Conditions at: ENSB (SVALBARD/LONGYEA, SJ) observed 0520 UTC 16 August 2022
Temperature: 8.0°C (46°F)
Dewpoint: 2.0°C (36°F) [RH = 66%]
Pressure (altimeter): 30.06 inches Hg (1018.0 mb)
Winds: from the ESE (120 degrees) at 15 MPH (13 knots; 6.7 m/s)
Visibility: 6 or more miles (10+ km)
Ceiling: ceiling and visibility are OK
Clouds: unknown
Weather: no significant weather observed at this time

Forecast for: ENSB (SVALBARD/LONGYEA, SJ)
Text: TAF ENSB 1606/1706 12015KT 9999 FEW020 BKN050
Forecast period: 0600 to 1500 UTC 16 August 2022
Forecast type: FROM: standard forecast or significant change
Winds: from the ESE (120 degrees) at 17 MPH (15 knots; 7.7 m/s)
Visibility: 6 or more miles (10+ km)
Ceiling: 5000 feet AGL
Clouds: few clouds at 2000 feet AGL
broken clouds at 5000 feet AGL
Weather: no significant weather forecast for this period
Text: BECMG 1615/1618 12025KT
Forecast period: 1500 UTC 16 August 2022 to 0600 UTC 17 August 2022
Forecast type: BECOMING: Conditions expected to become as follows by 1800 UTC 16 August 2022
Winds: from the ESE (120 degrees) at 29 MPH (25 knots; 12.9 m/s)
Visibility: 6 or more miles (10+ km)
Ceiling: 5000 feet AGL
Clouds: few clouds at 2000 feet AGL
broken clouds at 5000 feet AGL
Weather: no significant weather forecast for this period
Text: TEMPO 1615/1702 12025G35KT
Forecast period: 1500 UTC 16 August 2022 to 0200 UTC 17 August 2022
Forecast type: TEMPORARY: The following changes expected for less than half the time period
Winds: from the ESE (120 degrees) at 29 MPH (25 knots; 12.9 m/s)
gusting to 40 MPH (35 knots; 18.0 m/s)
Visibility: missing
Ceiling: unknown
Clouds: missing
Weather: no significant weather forecast for this period